Time;durP1;ratioP1;P1;durP2;ratioP2;P2;SDS_P1;SDS_P2;PMS_P1;PMS_P2;Temp;Humidity;BMP_temperature;BMP_pressure;BME280_temperature;BME280_humidity;BME280_pressure;Samples;Min_cycle;Max_cycle;Signal;HPM_P1;HPM_P2
2023/11/21 00:04:19;;;;;;;3.65;2.83;;;17.30;76.00;;;;;;10533646;28;20111;-56
2023/11/21 00:09:19;;;;;;;4.97;2.95;;;17.30;75.80;;;;;;10541324;28;20032;-55
2023/11/21 00:14:20;;;;;;;3.95;3.17;;;17.30;76.10;;;;;;10540750;28;20726;-54
2023/11/21 00:19:20;;;;;;;7.55;3.63;;;17.30;75.70;;;;;;10541404;28;20032;-55
2023/11/21 00:24:21;;;;;;;6.25;4.70;;;17.20;75.40;;;;;;10540634;28;20078;-54
2023/11/21 00:29:21;;;;;;;5.78;4.22;;;17.20;76.10;;;;;;10547078;28;20032;-56
2023/11/21 00:34:22;;;;;;;5.18;4.20;;;17.20;75.60;;;;;;10560780;28;20036;-54
2023/11/21 00:39:23;;;;;;;4.22;3.03;;;17.20;75.50;;;;;;10559079;28;20437;-56
2023/11/21 00:44:24;;;;;;;6.63;3.97;;;17.20;75.40;;;;;;10581958;28;20638;-55
2023/11/21 00:49:24;;;;;;;4.43;3.08;;;17.20;75.30;;;;;;10582141;28;20085;-55
2023/11/21 00:54:25;;;;;;;5.40;3.22;;;17.10;75.10;;;;;;10581374;28;20504;-55
2023/11/21 00:59:25;;;;;;;4.07;3.65;;;17.20;75.20;;;;;;10581757;28;20028;-55
2023/11/21 01:04:26;;;;;;;5.90;2.60;;;17.10;75.30;;;;;;10581344;28;20042;-54
2023/11/21 01:09:27;;;;;;;4.25;3.22;;;17.10;75.20;;;;;;10554583;28;20032;-55
2023/11/21 01:14:28;;;;;;;4.63;3.50;;;17.10;75.30;;;;;;10538726;28;20518;-55
2023/11/21 01:19:28;;;;;;;4.88;3.03;;;17.10;75.20;;;;;;10519208;28;20022;-55
2023/11/21 01:24:29;;;;;;;4.30;2.92;;;17.10;75.20;;;;;;10538495;28;20051;-55
2023/11/21 01:29:30;;;;;;;3.97;2.75;;;17.00;75.20;;;;;;10537949;28;20020;-55
2023/11/21 01:34:30;;;;;;;3.88;2.95;;;17.00;75.50;;;;;;10565136;28;20040;-55
2023/11/21 01:39:31;;;;;;;4.80;3.28;;;17.10;75.40;;;;;;10537482;28;20030;-52
2023/11/21 01:44:32;;;;;;;5.10;2.40;;;17.00;75.70;;;;;;10537930;28;20547;-55
2023/11/21 01:49:33;;;;;;;4.80;3.08;;;17.00;75.40;;;;;;10537099;28;20031;-54
2023/11/21 01:54:33;;;;;;;4.05;2.80;;;17.00;75.70;;;;;;10519053;28;20038;-55
2023/11/21 01:59:39;;;;;;;3.22;2.67;;;17.00;75.60;;;;;;10536936;28;20099;-55
2023/11/21 02:04:40;;;;;;;4.55;2.80;;;17.00;75.90;;;;;;10536890;28;20032;-56
2023/11/21 02:09:42;;;;;;;4.30;3.50;;;17.00;76.10;;;;;;10536343;28;20429;-55
2023/11/21 02:14:43;;;;;;;5.15;2.97;;;16.90;75.20;;;;;;10569974;28;20588;-55
2023/11/21 02:19:44;;;;;;;4.55;3.50;;;16.90;75.40;;;;;;10578214;28;20012;-54
2023/11/21 02:24:46;;;;;;;3.90;2.50;;;17.00;75.30;;;;;;10578397;28;20031;-55
2023/11/21 02:29:47;;;;;;;4.85;3.10;;;16.90;75.30;;;;;;10567367;28;20094;-54
2023/11/21 02:34:48;;;;;;;3.92;2.28;;;16.90;75.30;;;;;;10555143;28;20535;-54
2023/11/21 02:39:48;;;;;;;5.32;3.38;;;16.90;75.40;;;;;;10535144;28;20027;-55
2023/11/21 02:44:49;;;;;;;3.97;2.83;;;16.90;75.40;;;;;;10535244;28;20026;-55
2023/11/21 02:49:51;;;;;;;5.55;2.65;;;16.90;76.10;;;;;;10534576;28;20102;-54
2023/11/21 02:54:53;;;;;;;3.35;2.20;;;16.90;75.50;;;;;;10565583;28;20067;-55
2023/11/21 02:59:54;;;;;;;4.40;2.63;;;16.90;75.60;;;;;;10576652;28;20020;-55
2023/11/21 03:04:55;;;;;;;3.85;2.70;;;16.90;75.50;;;;;;10577004;28;20100;-54
2023/11/21 03:09:55;;;;;;;3.95;2.80;;;16.90;75.90;;;;;;10545732;28;20069;-55
2023/11/21 03:14:56;;;;;;;3.35;2.42;;;16.80;75.70;;;;;;10542078;28;20031;-54
2023/11/21 03:19:57;;;;;;;2.63;1.63;;;16.80;76.00;;;;;;10575966;28;20361;-55
2023/11/21 03:24:58;;;;;;;2.63;1.90;;;16.80;75.80;;;;;;10576226;28;20137;-55
2023/11/21 03:29:58;;;;;;;3.92;2.70;;;16.80;75.80;;;;;;10563660;28;20086;-55
2023/11/21 03:35:00;;;;;;;2.60;1.80;;;16.80;76.10;;;;;;10533406;28;20093;-54
2023/11/21 03:40:00;;;;;;;2.85;2.05;;;16.80;75.80;;;;;;10532667;28;20012;-55
2023/11/21 03:45:01;;;;;;;2.70;1.98;;;16.80;76.00;;;;;;10533347;28;20031;-55
2023/11/21 03:50:03;;;;;;;2.83;2.30;;;16.80;76.00;;;;;;10549446;28;20028;-54
2023/11/21 03:55:04;;;;;;;3.75;2.70;;;16.70;76.30;;;;;;10575356;28;20106;-55
2023/11/21 04:00:08;;;;;;;5.90;2.67;;;16.70;76.10;;;;;;10574754;28;20102;-55
2023/11/21 04:05:09;;;;;;;4.32;3.00;;;16.70;75.50;;;;;;10575385;28;20031;-55
2023/11/21 04:10:12;;;;;;;3.97;2.42;;;16.70;75.40;;;;;;10536286;28;20039;-55
2023/11/21 04:15:13;;;;;;;3.55;2.20;;;16.70;75.50;;;;;;10524454;28;20560;-56
2023/11/21 04:20:14;;;;;;;4.07;2.65;;;16.80;76.00;;;;;;10494404;28;20544;-53
2023/11/21 04:25:15;;;;;;;3.63;2.28;;;16.80;76.20;;;;;;10515554;28;20036;-54
2023/11/21 04:30:16;;;;;;;3.67;2.03;;;16.80;76.40;;;;;;10518226;28;20052;-53
2023/11/21 04:35:16;;;;;;;5.57;2.58;;;16.80;76.50;;;;;;10512712;28;20040;-54
2023/11/21 04:40:17;;;;;;;4.15;2.03;;;16.80;76.30;;;;;;10516638;28;20463;-54
2023/11/21 04:45:17;;;;;;;3.83;2.17;;;16.80;76.50;;;;;;10517034;28;20149;-53
2023/11/21 04:50:19;;;;;;;4.80;2.53;;;16.80;76.60;;;;;;10530868;28;20024;-54
2023/11/21 04:55:19;;;;;;;3.97;3.22;;;16.80;76.30;;;;;;10539182;28;20123;-54
2023/11/21 05:00:21;;;;;;;4.97;2.83;;;16.70;76.20;;;;;;10521005;28;20146;-54
2023/11/21 05:05:22;;;;;;;5.18;2.42;;;16.70;76.00;;;;;;10539424;28;20027;-53
2023/11/21 05:10:22;;;;;;;3.03;2.38;;;16.70;76.00;;;;;;10534810;28;20024;-53
2023/11/21 05:15:23;;;;;;;3.15;2.45;;;16.70;76.00;;;;;;10560247;28;20046;-54
2023/11/21 05:20:24;;;;;;;4.28;2.83;;;16.70;76.00;;;;;;10554676;28;20043;-55
2023/11/21 05:25:24;;;;;;;5.47;2.22;;;16.70;76.00;;;;;;10556659;28;20743;-52
2023/11/21 05:30:25;;;;;;;4.28;2.75;;;16.70;76.00;;;;;;10559937;28;20020;-54
2023/11/21 05:35:26;;;;;;;4.80;2.42;;;16.60;75.90;;;;;;10548675;28;20036;-54
2023/11/21 05:40:29;;;;;;;3.33;2.38;;;16.60;76.00;;;;;;10568811;28;20026;-52
2023/11/21 05:45:30;;;;;;;2.88;1.92;;;16.60;76.30;;;;;;10560092;28;20043;-54
2023/11/21 05:50:30;;;;;;;4.00;2.30;;;16.70;76.20;;;;;;10536971;28;20028;-52
2023/11/21 05:55:31;;;;;;;3.90;1.85;;;16.80;76.00;;;;;;10537342;28;20131;-52
2023/11/21 06:00:32;;;;;;;3.67;1.98;;;16.80;75.80;;;;;;10534548;28;20028;-52
2023/11/21 06:05:33;;;;;;;5.57;2.10;;;16.90;75.50;;;;;;10536563;28;20024;-53
2023/11/21 06:10:34;;;;;;;6.72;2.65;;;17.00;75.80;;;;;;10536187;28;20506;-52
2023/11/21 06:15:34;;;;;;;8.57;2.30;;;17.10;76.70;;;;;;10536389;28;20020;-52
2023/11/21 06:20:37;;;;;;;7.53;2.30;;;17.10;76.30;;;;;;10529892;28;20017;-53
2023/11/21 06:25:37;;;;;;;9.25;3.10;;;17.10;76.20;;;;;;10536192;28;20069;-53
2023/11/21 06:30:38;;;;;;;13.10;3.50;;;17.10;76.10;;;;;;10549408;28;20077;-52
2023/11/21 06:35:39;;;;;;;12.35;3.58;;;17.10;75.90;;;;;;10535536;28;20059;-49
2023/11/21 06:40:40;;;;;;;17.50;3.88;;;17.10;76.20;;;;;;10544805;28;20566;-51
2023/11/21 06:45:41;;;;;;;12.80;5.60;;;17.00;76.10;;;;;;10556470;28;20043;-53
2023/11/21 06:50:42;;;;;;;20.05;4.15;;;17.00;76.40;;;;;;10576731;28;20032;-54
2023/11/21 06:55:42;;;;;;;12.18;4.28;;;17.00;76.30;;;;;;10576988;28;20486;-52
2023/11/21 07:00:46;;;;;;;21.00;6.22;;;17.00;76.30;;;;;;10577101;28;20069;-54
2023/11/21 07:05:47;;;;;;;19.00;4.57;;;17.00;76.30;;;;;;10562882;28;20081;-53
2023/11/21 07:10:47;;;;;;;17.50;5.05;;;16.90;76.20;;;;;;10532308;28;20078;-53
2023/11/21 07:15:49;;;;;;;12.48;4.10;;;16.90;76.30;;;;;;10531325;28;20024;-53
2023/11/21 07:20:49;;;;;;;14.05;3.63;;;16.90;76.10;;;;;;10533880;28;20028;-52
2023/11/21 07:25:50;;;;;;;11.25;3.75;;;16.90;76.20;;;;;;10534311;28;20129;-53
2023/11/21 07:30:51;;;;;;;19.02;5.15;;;16.80;76.00;;;;;;10546624;28;20042;-54
2023/11/21 07:35:51;;;;;;;10.65;4.55;;;16.80;76.50;;;;;;10549554;28;20113;-55
2023/11/21 07:40:53;;;;;;;10.75;4.43;;;16.80;76.00;;;;;;10532995;28;20044;-54
2023/11/21 07:45:53;;;;;;;30.83;5.70;;;16.70;76.20;;;;;;10513373;28;20024;-53
2023/11/21 07:50:54;;;;;;;7.78;3.70;;;16.70;76.00;;;;;;10513209;28;20051;-54
2023/11/21 07:55:57;;;;;;;11.57;4.97;;;16.70;76.00;;;;;;10520163;28;20027;-53
2023/11/21 08:00:58;;;;;;;13.20;4.72;;;16.80;76.00;;;;;;10514929;28;20015;-54
2023/11/21 08:05:59;;;;;;;9.48;4.80;;;16.70;75.70;;;;;;10520014;28;20023;-54
2023/11/21 08:11:01;;;;;;;9.43;4.70;;;16.70;75.60;;;;;;10536127;28;20044;-55
2023/11/21 08:16:04;;;;;;;12.27;5.63;;;16.70;75.50;;;;;;10518266;28;20097;-56
2023/11/21 08:21:05;;;;;;;7.07;3.50;;;16.70;75.50;;;;;;10518115;28;20028;-54
2023/11/21 08:26:06;;;;;;;7.20;3.90;;;16.70;75.50;;;;;;10524641;28;20434;-53
2023/11/21 08:31:06;;;;;;;10.30;4.32;;;16.80;75.30;;;;;;10527352;28;20107;-53
2023/11/21 08:36:11;;;;;;;11.35;4.07;;;16.80;75.40;;;;;;10543187;28;20044;-53
2023/11/21 08:41:14;;;;;;;8.32;3.63;;;16.70;75.00;;;;;;10540854;28;20024;-53
2023/11/21 08:46:16;;;;;;;7.65;4.20;;;16.80;75.00;;;;;;10540150;28;20368;-54
2023/11/21 08:51:17;;;;;;;8.07;4.47;;;16.80;74.70;;;;;;10539660;28;20028;-53
2023/11/21 08:56:18;;;;;;;7.90;3.72;;;16.90;74.70;;;;;;10544613;28;20024;-54
2023/11/21 09:01:19;;;;;;;11.75;4.18;;;16.80;74.80;;;;;;10555154;28;20403;-54
2023/11/21 09:06:19;;;;;;;7.95;4.30;;;16.80;75.40;;;;;;10520869;28;20020;-54
2023/11/21 09:11:20;;;;;;;8.52;3.95;;;16.80;75.80;;;;;;10538479;28;20505;-53
2023/11/21 09:16:20;;;;;;;6.45;3.40;;;16.90;75.70;;;;;;10538822;28;20115;-53
2023/11/21 09:21:21;;;;;;;5.80;4.13;;;16.90;75.70;;;;;;10544148;28;20490;-53
2023/11/21 09:26:21;;;;;;;10.13;4.43;;;16.90;75.80;;;;;;10568171;28;20089;-53
2023/11/21 09:31:23;;;;;;;11.00;4.00;;;16.90;76.00;;;;;;10566796;28;20028;-54
2023/11/21 09:36:26;;;;;;;9.32;4.45;;;16.90;76.00;;;;;;10554380;28;20031;-54
2023/11/21 09:41:34;;;;;;;7.55;4.40;;;16.90;76.00;;;;;;10549853;28;20095;-53
2023/11/21 09:46:39;;;;;;;8.75;5.00;;;16.90;76.10;;;;;;10537679;28;20101;-54
2023/11/21 09:51:42;;;;;;;7.15;4.22;;;16.80;76.00;;;;;;10519756;28;20024;-54
2023/11/21 09:56:43;;;;;;;6.20;4.25;;;16.90;76.10;;;;;;10537099;28;20017;-53
2023/11/21 10:01:46;;;;;;;11.48;4.70;;;16.80;76.00;;;;;;10556035;28;20024;-53
2023/11/21 10:06:47;;;;;;;10.80;5.07;;;16.80;76.30;;;;;;10575390;28;20024;-53
2023/11/21 10:11:51;;;;;;;10.60;5.40;;;16.90;76.10;;;;;;10517764;28;20107;-53
2023/11/21 10:16:53;;;;;;;9.52;4.20;;;16.90;76.30;;;;;;10518381;28;20020;-54
2023/11/21 10:21:54;;;;;;;7.10;4.32;;;16.90;76.60;;;;;;10517758;28;20449;-53
2023/11/21 10:26:55;;;;;;;6.72;4.07;;;16.90;76.70;;;;;;10518016;28;20048;-53
2023/11/21 10:31:58;;;;;;;6.82;3.65;;;16.90;76.60;;;;;;10563322;28;20447;-53
2023/11/21 10:36:59;;;;;;;6.43;4.10;;;16.90;76.70;;;;;;10539608;28;20112;-52
2023/11/21 10:41:59;;;;;;;7.47;3.83;;;16.90;76.70;;;;;;10515983;28;20457;-55
2023/11/21 10:47:00;;;;;;;7.63;4.25;;;16.90;76.70;;;;;;10535191;28;20237;-55
2023/11/21 10:52:01;;;;;;;6.22;3.90;;;17.00;76.90;;;;;;10533191;28;20575;-54
2023/11/21 10:57:03;;;;;;;7.90;3.83;;;16.90;76.90;;;;;;10569831;28;20028;-54
2023/11/21 11:02:21;;;;;;;7.10;3.80;;;16.90;76.60;;;;;;10546720;28;20540;-53
2023/11/21 11:07:27;;;;;;;7.75;3.97;;;16.80;76.30;;;;;;10516399;28;20624;-53
2023/11/21 11:12:28;;;;;;;8.13;4.15;;;16.80;76.20;;;;;;10533638;28;20031;-54
2023/11/21 11:17:28;;;;;;;7.18;3.63;;;16.80;76.30;;;;;;10516075;28;20028;-54
2023/11/21 11:22:41;;;;;;;6.75;3.67;;;16.70;76.20;;;;;;10514927;28;20035;-53
2023/11/21 11:27:54;;;;;;;6.00;3.30;;;16.70;76.30;;;;;;10533173;28;20429;-54
2023/11/21 11:33:07;;;;;;;5.72;3.42;;;16.70;76.20;;;;;;10538490;28;20075;-55
2023/11/21 11:38:08;;;;;;;7.00;3.63;;;16.70;76.10;;;;;;10526862;28;20658;-54
2023/11/21 11:43:08;;;;;;;6.25;3.42;;;16.70;76.00;;;;;;10574420;28;20096;-54
2023/11/21 11:48:14;;;;;;;6.22;2.90;;;16.70;75.90;;;;;;10575163;28;20024;-54
2023/11/21 11:53:15;;;;;;;5.93;3.15;;;16.70;75.70;;;;;;10573980;28;20031;-54
2023/11/21 11:58:17;;;;;;;5.43;3.25;;;16.70;75.60;;;;;;10575221;28;20032;-55
2023/11/21 12:03:18;;;;;;;5.22;3.42;;;16.80;75.60;;;;;;10580321;28;20036;-53
2023/11/21 12:08:20;;;;;;;4.85;3.00;;;16.70;75.50;;;;;;10566452;28;20534;-54
2023/11/21 12:13:21;;;;;;;7.55;3.78;;;16.80;75.60;;;;;;10534457;28;20543;-55
2023/11/21 12:18:26;;;;;;;7.88;3.35;;;16.80;75.40;;;;;;10523032;28;20020;-54
2023/11/21 12:23:26;;;;;;;5.40;2.60;;;17.00;76.40;;;;;;10523948;28;20040;-55
2023/11/21 12:28:27;;;;;;;5.53;3.28;;;17.10;76.20;;;;;;10522565;28;20020;-53
2023/11/21 12:33:29;;;;;;;4.10;2.80;;;17.20;76.10;;;;;;10580248;28;20051;-53
2023/11/21 12:38:35;;;;;;;4.15;2.92;;;17.40;75.40;;;;;;10540124;28;20025;-52
2023/11/21 12:43:38;;;;;;;5.18;3.03;;;17.40;75.60;;;;;;10557631;28;20550;-53
2023/11/21 12:48:42;;;;;;;5.88;2.78;;;17.30;75.80;;;;;;10546726;28;20036;-54
2023/11/21 12:53:44;;;;;;;4.18;2.47;;;17.20;76.20;;;;;;10504427;28;20032;-54
2023/11/21 12:58:47;;;;;;;4.10;2.50;;;17.20;75.90;;;;;;10564003;28;20028;-52
2023/11/21 13:03:48;;;;;;;5.25;2.53;;;17.00;75.90;;;;;;10533673;28;20028;-53
2023/11/21 13:08:49;;;;;;;7.55;2.40;;;17.00;76.00;;;;;;10538445;28;20043;-53
2023/11/21 13:13:53;;;;;;;8.27;2.40;;;16.90;76.00;;;;;;10545338;28;20034;-54
2023/11/21 13:18:53;;;;;;;5.10;2.47;;;16.80;76.00;;;;;;10538822;28;20099;-54
2023/11/21 13:23:54;;;;;;;9.23;3.45;;;16.80;75.90;;;;;;10527469;28;20020;-54
2023/11/21 13:28:56;;;;;;;6.18;3.20;;;16.80;76.50;;;;;;10519911;28;20046;-55
2023/11/21 13:33:58;;;;;;;5.50;2.70;;;16.80;76.00;;;;;;10552095;28;20032;-53
2023/11/21 13:39:04;;;;;;;6.22;2.88;;;16.80;75.80;;;;;;10549798;28;20027;-54
2023/11/21 13:44:15;;;;;;;6.68;2.88;;;16.90;76.10;;;;;;10532244;28;20406;-52
2023/11/21 13:49:16;;;;;;;9.30;2.83;;;16.90;76.10;;;;;;10523071;28;20490;-54
2023/11/21 13:54:17;;;;;;;11.73;2.83;;;16.90;76.10;;;;;;10535162;28;20024;-54
2023/11/21 13:59:23;;;;;;;11.90;3.65;;;16.90;76.10;;;;;;10535112;28;20483;-54
2023/11/21 14:09:36;;;;;;;10.30;3.70;;;16.80;76.30;;;;;;10527947;28;20112;-56
2023/11/21 14:14:37;;;;;;;10.85;5.47;;;16.80;76.70;;;;;;10526310;28;20031;-54
2023/11/21 14:19:42;;;;;;;11.10;5.65;;;16.90;78.60;;;;;;10535870;28;20111;-54
2023/11/21 14:24:46;;;;;;;19.85;4.53;;;16.90;81.90;;;;;;10534600;28;20059;-56
2023/11/21 14:29:48;;;;;;;5.95;3.20;;;16.90;78.40;;;;;;10533696;28;20032;-55
2023/11/21 14:34:49;;;;;;;10.95;3.42;;;16.90;78.10;;;;;;10533212;28;20048;-55
2023/11/21 14:39:50;;;;;;;10.73;3.33;;;16.90;78.10;;;;;;10496252;28;20193;-55
2023/11/21 14:44:51;;;;;;;12.68;3.53;;;16.90;77.90;;;;;;10505013;28;20131;-54
2023/11/21 14:49:52;;;;;;;8.70;4.03;;;16.90;78.10;;;;;;10523733;28;20027;-54
2023/11/21 14:55:18;;;;;;;6.15;2.58;;;16.90;77.90;;;;;;10515497;28;20031;-54
2023/11/21 15:00:33;;;;;;;6.25;3.05;;;16.80;77.80;;;;;;10530035;28;20569;-56
2023/11/21 15:05:35;;;;;;;9.38;2.97;;;16.80;77.80;;;;;;10529954;28;20036;-55
2023/11/21 15:10:46;;;;;;;8.35;3.40;;;16.80;77.70;;;;;;10535978;28;20035;-54
2023/11/21 15:15:46;;;;;;;8.52;2.95;;;16.80;77.10;;;;;;10510522;28;20059;-56
2023/11/21 15:20:47;;;;;;;12.38;3.13;;;16.90;77.10;;;;;;10468967;28;20139;-54
2023/11/21 15:25:47;;;;;;;15.02;4.80;;;16.90;77.00;;;;;;10506797;28;20020;-55
2023/11/21 15:30:51;;;;;;;11.75;3.35;;;17.00;76.50;;;;;;10505131;28;20028;-56
2023/11/21 15:35:51;;;;;;;11.02;4.97;;;17.00;76.40;;;;;;10510297;28;20040;-56
2023/11/21 15:40:52;;;;;;;12.88;5.55;;;17.10;78.10;;;;;;10526241;28;20020;-55
2023/11/21 15:45:53;;;;;;;16.67;9.88;;;17.20;77.60;;;;;;10523833;28;20127;-56
2023/11/21 15:50:57;;;;;;;14.18;6.05;;;17.30;84.20;;;;;;10519775;28;20035;-55
2023/11/21 15:55:58;;;;;;;19.20;6.05;;;17.30;80.10;;;;;;10506784;28;20552;-56
2023/11/21 16:00:58;;;;;;;15.13;6.35;;;17.20;78.50;;;;;;10512830;28;20017;-56
2023/11/21 16:05:59;;;;;;;10.27;4.68;;;17.10;78.40;;;;;;10518300;28;20448;-56
2023/11/21 16:10:59;;;;;;;8.63;4.38;;;17.00;78.10;;;;;;10502053;28;20024;-55
2023/11/21 16:16:01;;;;;;;9.95;5.05;;;17.00;77.90;;;;;;10520329;28;20115;-55
2023/11/21 16:21:01;;;;;;;11.48;4.88;;;16.90;77.30;;;;;;10514726;28;20031;-55
2023/11/21 16:26:04;;;;;;;10.40;5.07;;;16.90;77.10;;;;;;10531512;28;20779;-55
2023/11/21 16:31:05;;;;;;;8.05;4.75;;;16.90;77.00;;;;;;10553720;28;20084;-56
2023/11/21 16:36:06;;;;;;;8.95;4.72;;;16.80;77.10;;;;;;10551880;28;20044;-56
2023/11/21 16:41:08;;;;;;;11.77;5.00;;;16.80;77.10;;;;;;10531997;28;20020;-55
2023/11/21 16:46:11;;;;;;;11.48;4.13;;;16.80;77.00;;;;;;10557432;28;20027;-55
2023/11/21 16:51:16;;;;;;;10.88;3.88;;;16.70;76.70;;;;;;10581486;28;20055;-54
2023/11/21 16:56:16;;;;;;;12.25;6.55;;;16.80;76.30;;;;;;10560964;28;20485;-55
2023/11/21 17:01:17;;;;;;;7.55;3.83;;;16.80;76.00;;;;;;10529258;28;20032;-55
2023/11/21 17:06:18;;;;;;;7.10;3.92;;;16.80;76.10;;;;;;10538015;28;20024;-55
2023/11/21 17:11:19;;;;;;;6.75;3.75;;;16.80;76.00;;;;;;10551928;28;20054;-54
2023/11/21 17:16:19;;;;;;;7.55;4.28;;;16.90;75.40;;;;;;10533208;28;20029;-52
2023/11/21 17:21:20;;;;;;;10.77;4.32;;;16.90;75.50;;;;;;10542050;28;20655;-53
2023/11/21 17:26:21;;;;;;;10.40;5.13;;;17.00;76.80;;;;;;10571852;28;20023;-53
2023/11/21 17:31:22;;;;;;;11.18;4.43;;;17.20;77.50;;;;;;10566573;28;20031;-54
2023/11/21 17:36:24;;;;;;;9.48;4.95;;;17.40;77.10;;;;;;10536952;28;20471;-52
2023/11/21 17:41:24;;;;;;;16.52;5.07;;;17.30;76.80;;;;;;10537617;28;20374;-53
2023/11/21 17:46:25;;;;;;;14.50;5.05;;;17.30;76.30;;;;;;10528155;28;20024;-55
2023/11/21 17:51:25;;;;;;;13.50;5.15;;;17.30;76.30;;;;;;10524711;28;20029;-54
2023/11/21 17:56:26;;;;;;;10.95;5.63;;;17.20;75.80;;;;;;10528859;28;20775;-53
2023/11/21 18:01:33;;;;;;;11.57;5.43;;;17.00;75.90;;;;;;10521232;28;20383;-55
2023/11/21 18:06:33;;;;;;;17.08;5.55;;;17.00;76.10;;;;;;10536979;28;20036;-51
2023/11/21 18:11:34;;;;;;;11.55;5.82;;;17.00;75.70;;;;;;10521341;28;20050;-52
2023/11/21 18:16:37;;;;;;;13.15;5.45;;;17.00;75.60;;;;;;10513012;28;20028;-53
2023/11/21 18:21:39;;;;;;;19.48;5.47;;;16.90;75.50;;;;;;10513365;28;20031;-55
2023/11/21 18:26:40;;;;;;;15.43;6.03;;;17.00;75.70;;;;;;10507043;28;20085;-54
2023/11/21 18:31:41;;;;;;;11.00;4.80;;;16.90;75.80;;;;;;10534537;28;20039;-52
2023/11/21 18:36:43;;;;;;;11.38;6.15;;;16.90;75.90;;;;;;10524311;28;20112;-51
2023/11/21 18:41:44;;;;;;;9.57;4.93;;;16.80;75.80;;;;;;10487977;28;20016;-53
2023/11/21 18:46:46;;;;;;;10.32;5.28;;;16.80;75.50;;;;;;10515406;28;20027;-53
2023/11/21 18:51:47;;;;;;;8.23;5.65;;;16.70;75.60;;;;;;10497519;28;20047;-54
2023/11/21 18:56:48;;;;;;;11.77;5.47;;;16.70;75.60;;;;;;10501074;28;20035;-54
2023/11/21 19:01:49;;;;;;;10.75;6.40;;;16.60;75.60;;;;;;10490928;28;20424;-55
2023/11/21 19:06:50;;;;;;;13.70;6.72;;;16.80;75.50;;;;;;10535841;28;20689;-54
2023/11/21 19:11:50;;;;;;;12.32;7.80;;;16.80;75.30;;;;;;10550633;28;20586;-54
2023/11/21 19:16:51;;;;;;;18.40;6.80;;;16.90;75.40;;;;;;10555312;28;20106;-55
2023/11/21 19:21:52;;;;;;;15.18;7.05;;;16.90;75.20;;;;;;10555292;28;20459;-55
2023/11/21 19:26:53;;;;;;;9.32;6.25;;;16.90;75.20;;;;;;10552855;28;20047;-55
2023/11/21 19:31:54;;;;;;;12.05;5.85;;;16.90;75.10;;;;;;10554797;28;20055;-55
2023/11/21 19:36:55;;;;;;;10.70;6.65;;;16.90;75.30;;;;;;10551840;28;20027;-56
2023/11/21 19:41:55;;;;;;;8.68;6.47;;;16.80;75.20;;;;;;10555015;28;20060;-55
2023/11/21 19:46:56;;;;;;;10.57;5.93;;;16.80;75.20;;;;;;10553209;28;20027;-55
2023/11/21 19:51:56;;;;;;;11.43;5.97;;;16.80;75.20;;;;;;10515124;28;20016;-54
2023/11/21 19:56:57;;;;;;;8.65;5.85;;;16.80;75.30;;;;;;10514113;28;20024;-55
2023/11/21 20:01:59;;;;;;;9.52;6.95;;;16.70;75.30;;;;;;10518851;28;20028;-52
2023/11/21 20:06:59;;;;;;;11.98;7.20;;;16.70;75.10;;;;;;10511011;28;20028;-55
2023/11/21 20:12:00;;;;;;;11.75;5.20;;;16.70;75.00;;;;;;10532397;28;20555;-55
2023/11/21 20:17:02;;;;;;;8.18;5.47;;;16.70;75.10;;;;;;10535262;28;20024;-54
2023/11/21 20:22:03;;;;;;;8.85;5.20;;;16.70;74.80;;;;;;10550918;28;20012;-54
2023/11/21 20:27:04;;;;;;;10.13;5.07;;;16.60;74.50;;;;;;10551882;28;20039;-54
2023/11/21 20:32:05;;;;;;;14.43;5.60;;;16.50;74.40;;;;;;10522276;28;20048;-54
2023/11/21 20:37:06;;;;;;;7.55;4.97;;;16.50;74.50;;;;;;10507481;28;20062;-56
2023/11/21 20:42:08;;;;;;;7.95;5.50;;;16.50;74.60;;;;;;10540042;28;20020;-55
2023/11/21 20:47:09;;;;;;;11.35;6.22;;;16.50;74.50;;;;;;10540531;28;20111;-55
2023/11/21 20:52:10;;;;;;;7.90;5.32;;;16.40;74.60;;;;;;10539696;28;20546;-55
2023/11/21 20:57:12;;;;;;;6.97;4.95;;;16.40;74.40;;;;;;10540343;28;20463;-55
2023/11/21 21:02:12;;;;;;;6.07;4.53;;;16.40;74.20;;;;;;10539473;28;20637;-54
2023/11/21 21:07:13;;;;;;;7.07;4.63;;;16.40;74.20;;;;;;10539595;28;20016;-55
2023/11/21 21:12:14;;;;;;;6.90;4.93;;;16.30;74.10;;;;;;10538844;28;20020;-55
2023/11/21 21:17:14;;;;;;;7.15;5.05;;;16.30;73.90;;;;;;10539247;28;20021;-55
2023/11/21 21:22:15;;;;;;;7.05;5.15;;;16.30;74.10;;;;;;10538296;28;20020;-55
2023/11/21 21:27:16;;;;;;;6.53;4.90;;;16.30;74.20;;;;;;10538711;28;20019;-55
2023/11/21 21:32:16;;;;;;;5.20;4.05;;;16.20;74.20;;;;;;10567600;28;20036;-55
2023/11/21 21:37:17;;;;;;;6.93;4.53;;;16.20;74.30;;;;;;10529211;28;20048;-55
2023/11/21 21:42:18;;;;;;;5.55;3.63;;;16.20;73.80;;;;;;10537652;28;20528;-54
2023/11/21 21:47:18;;;;;;;6.25;3.92;;;16.20;74.00;;;;;;10538121;28;20031;-55
2023/11/21 21:52:19;;;;;;;6.03;4.40;;;16.20;73.90;;;;;;10545783;28;20043;-54
2023/11/21 21:57:20;;;;;;;5.20;4.28;;;16.20;73.60;;;;;;10579884;28;20496;-54
2023/11/21 22:02:20;;;;;;;7.15;4.72;;;16.10;73.50;;;;;;10579024;28;20035;-54
2023/11/21 22:07:22;;;;;;;5.78;4.22;;;16.10;73.70;;;;;;10571090;28;20042;-55
2023/11/21 22:12:22;;;;;;;4.75;3.88;;;16.10;73.40;;;;;;10535173;28;20441;-55
2023/11/21 22:17:23;;;;;;;9.20;4.20;;;16.10;74.00;;;;;;10535397;28;20085;-53
2023/11/21 22:22:23;;;;;;;6.40;4.63;;;16.10;74.10;;;;;;10536077;28;20394;-55
2023/11/21 22:27:24;;;;;;;6.68;4.68;;;16.10;73.60;;;;;;10536351;28;20020;-55
2023/11/21 22:32:25;;;;;;;5.82;3.88;;;16.00;73.50;;;;;;10567825;28;20529;-55
2023/11/21 22:37:25;;;;;;;5.20;3.90;;;16.00;73.60;;;;;;10544433;28;20024;-55
2023/11/21 22:42:26;;;;;;;4.70;3.72;;;16.00;73.20;;;;;;10535703;28;20065;-55
2023/11/21 22:47:26;;;;;;;5.55;3.28;;;16.00;73.00;;;;;;10535527;28;20016;-55
2023/11/21 22:52:27;;;;;;;5.25;3.30;;;16.00;74.00;;;;;;10534697;28;20020;-55
2023/11/21 22:57:27;;;;;;;5.20;3.63;;;16.00;74.00;;;;;;10535094;28;20020;-55
2023/11/21 23:02:30;;;;;;;4.80;2.97;;;15.90;74.10;;;;;;10534523;28;20095;-55
2023/11/21 23:07:30;;;;;;;4.80;3.72;;;15.90;74.50;;;;;;10534589;28;20099;-55
2023/11/21 23:12:32;;;;;;;5.13;3.35;;;15.90;74.50;;;;;;10534149;28;20912;-55
2023/11/21 23:17:33;;;;;;;3.67;2.97;;;15.90;74.50;;;;;;10534463;28;20099;-56
2023/11/21 23:22:34;;;;;;;4.93;3.50;;;15.90;74.50;;;;;;10533954;28;20016;-55
2023/11/21 23:27:34;;;;;;;4.90;3.35;;;15.90;74.60;;;;;;10515938;28;20038;-55
2023/11/21 23:32:35;;;;;;;5.38;3.28;;;15.80;74.70;;;;;;10533242;28;22390;-55
2023/11/21 23:37:36;;;;;;;4.03;3.15;;;15.80;74.60;;;;;;10533457;28;20023;-55
2023/11/21 23:42:36;;;;;;;4.80;3.03;;;15.80;74.70;;;;;;10533016;28;20441;-55
2023/11/21 23:47:37;;;;;;;3.15;1.98;;;15.80;74.60;;;;;;10533494;28;20024;-56
2023/11/21 23:52:38;;;;;;;4.47;3.10;;;15.80;74.80;;;;;;10532990;28;20056;-56
2023/11/21 23:57:40;;;;;;;4.40;2.95;;;15.80;74.80;;;;;;10532671;28;20024;-55
